sensor_id;sensor_type;location;lat;lon;timestamp;temperature;humidity
85808;DHT22;76250;48.718;9.000;2024-03-07T00:00:13;9.00;74.20
85808;DHT22;76250;48.718;9.000;2024-03-07T00:02:50;9.00;74.10
85808;DHT22;76250;48.718;9.000;2024-03-07T00:05:20;9.00;74.10
85808;DHT22;76250;48.718;9.000;2024-03-07T00:07:53;9.00;73.90
85808;DHT22;76250;48.718;9.000;2024-03-07T00:10:21;8.90;73.80
85808;DHT22;76250;48.718;9.000;2024-03-07T00:12:51;8.90;74.00
85808;DHT22;76250;48.718;9.000;2024-03-07T00:15:18;8.90;74.10
85808;DHT22;76250;48.718;9.000;2024-03-07T00:17:46;8.90;74.20
85808;DHT22;76250;48.718;9.000;2024-03-07T00:20:14;8.90;74.20
85808;DHT22;76250;48.718;9.000;2024-03-07T00:22:43;8.90;74.00
85808;DHT22;76250;48.718;9.000;2024-03-07T00:25:11;8.90;74.00
85808;DHT22;76250;48.718;9.000;2024-03-07T00:27:42;8.90;73.90
85808;DHT22;76250;48.718;9.000;2024-03-07T00:30:13;8.90;73.80
85808;DHT22;76250;48.718;9.000;2024-03-07T00:32:41;8.90;73.80
85808;DHT22;76250;48.718;9.000;2024-03-07T00:35:10;8.80;73.80
85808;DHT22;76250;48.718;9.000;2024-03-07T00:37:38;8.80;73.90
85808;DHT22;76250;48.718;9.000;2024-03-07T00:40:06;8.80;74.00
85808;DHT22;76250;48.718;9.000;2024-03-07T00:42:35;8.80;74.00
85808;DHT22;76250;48.718;9.000;2024-03-07T00:45:03;8.80;74.00
85808;DHT22;76250;48.718;9.000;2024-03-07T00:47:32;8.70;73.80
85808;DHT22;76250;48.718;9.000;2024-03-07T00:50:01;8.70;73.80
85808;DHT22;76250;48.718;9.000;2024-03-07T00:52:30;8.70;73.60
85808;DHT22;76250;48.718;9.000;2024-03-07T00:54:58;8.70;73.50
85808;DHT22;76250;48.718;9.000;2024-03-07T00:57:25;8.70;73.50
85808;DHT22;76250;48.718;9.000;2024-03-07T00:59:53;8.60;73.50
85808;DHT22;76250;48.718;9.000;2024-03-07T01:02:21;8.60;73.50
85808;DHT22;76250;48.718;9.000;2024-03-07T01:04:50;8.60;73.50
85808;DHT22;76250;48.718;9.000;2024-03-07T01:07:17;8.60;73.60
85808;DHT22;76250;48.718;9.000;2024-03-07T01:09:46;8.50;73.60
85808;DHT22;76250;48.718;9.000;2024-03-07T01:12:15;8.50;73.60
85808;DHT22;76250;48.718;9.000;2024-03-07T01:14:44;8.50;73.60
85808;DHT22;76250;48.718;9.000;2024-03-07T01:17:13;8.50;73.70
85808;DHT22;76250;48.718;9.000;2024-03-07T01:19:41;8.50;73.80
85808;DHT22;76250;48.718;9.000;2024-03-07T01:22:09;8.40;73.70
85808;DHT22;76250;48.718;9.000;2024-03-07T01:24:37;8.40;73.70
85808;DHT22;76250;48.718;9.000;2024-03-07T01:27:06;8.40;73.70
85808;DHT22;76250;48.718;9.000;2024-03-07T01:29:35;8.40;73.60
85808;DHT22;76250;48.718;9.000;2024-03-07T01:32:03;8.40;73.50
85808;DHT22;76250;48.718;9.000;2024-03-07T01:34:31;8.40;73.40
85808;DHT22;76250;48.718;9.000;2024-03-07T01:36:59;8.40;73.30
85808;DHT22;76250;48.718;9.000;2024-03-07T01:39:26;8.30;73.20
85808;DHT22;76250;48.718;9.000;2024-03-07T01:41:54;8.30;73.20
85808;DHT22;76250;48.718;9.000;2024-03-07T01:44:22;8.30;73.10
85808;DHT22;76250;48.718;9.000;2024-03-07T01:46:50;8.30;73.10
85808;DHT22;76250;48.718;9.000;2024-03-07T01:49:18;8.20;73.00
85808;DHT22;76250;48.718;9.000;2024-03-07T01:51:46;8.20;73.00
85808;DHT22;76250;48.718;9.000;2024-03-07T01:54:15;8.20;72.90
85808;DHT22;76250;48.718;9.000;2024-03-07T01:56:44;8.20;72.90
85808;DHT22;76250;48.718;9.000;2024-03-07T01:59:12;8.10;73.00
85808;DHT22;76250;48.718;9.000;2024-03-07T02:01:40;8.10;73.10
85808;DHT22;76250;48.718;9.000;2024-03-07T02:04:09;8.00;73.10
85808;DHT22;76250;48.718;9.000;2024-03-07T02:06:37;8.00;73.10
85808;DHT22;76250;48.718;9.000;2024-03-07T02:09:05;8.00;73.10
85808;DHT22;76250;48.718;9.000;2024-03-07T02:11:33;8.00;72.90
85808;DHT22;76250;48.718;9.000;2024-03-07T02:14:01;7.90;72.70
85808;DHT22;76250;48.718;9.000;2024-03-07T02:16:30;7.90;72.60
85808;DHT22;76250;48.718;9.000;2024-03-07T02:18:59;7.90;72.50
85808;DHT22;76250;48.718;9.000;2024-03-07T02:21:27;7.80;72.50
85808;DHT22;76250;48.718;9.000;2024-03-07T02:23:55;7.80;72.40
85808;DHT22;76250;48.718;9.000;2024-03-07T02:26:23;7.70;72.20
85808;DHT22;76250;48.718;9.000;2024-03-07T02:28:51;7.70;72.00
85808;DHT22;76250;48.718;9.000;2024-03-07T02:31:19;7.60;71.70
85808;DHT22;76250;48.718;9.000;2024-03-07T02:33:47;7.50;71.80
85808;DHT22;76250;48.718;9.000;2024-03-07T02:36:15;7.40;71.80
85808;DHT22;76250;48.718;9.000;2024-03-07T02:38:43;7.40;71.90
85808;DHT22;76250;48.718;9.000;2024-03-07T02:41:11;7.30;72.00
85808;DHT22;76250;48.718;9.000;2024-03-07T02:43:40;7.30;72.20
85808;DHT22;76250;48.718;9.000;2024-03-07T02:46:08;7.20;72.10
85808;DHT22;76250;48.718;9.000;2024-03-07T02:48:39;7.20;72.00
85808;DHT22;76250;48.718;9.000;2024-03-07T02:51:07;7.10;71.90
85808;DHT22;76250;48.718;9.000;2024-03-07T02:53:35;7.00;71.70
85808;DHT22;76250;48.718;9.000;2024-03-07T02:56:03;7.00;71.70
85808;DHT22;76250;48.718;9.000;2024-03-07T02:58:35;6.90;71.50
85808;DHT22;76250;48.718;9.000;2024-03-07T03:01:04;6.80;71.50
85808;DHT22;76250;48.718;9.000;2024-03-07T03:03:32;6.80;71.50
85808;DHT22;76250;48.718;9.000;2024-03-07T03:06:00;6.70;71.50
85808;DHT22;76250;48.718;9.000;2024-03-07T03:08:28;6.60;71.30
85808;DHT22;76250;48.718;9.000;2024-03-07T03:10:58;6.50;71.30
85808;DHT22;76250;48.718;9.000;2024-03-07T03:13:27;6.50;71.40
85808;DHT22;76250;48.718;9.000;2024-03-07T03:15:56;6.40;71.40
85808;DHT22;76250;48.718;9.000;2024-03-07T03:18:24;6.40;71.60
85808;DHT22;76250;48.718;9.000;2024-03-07T03:20:52;6.30;71.90
85808;DHT22;76250;48.718;9.000;2024-03-07T03:23:20;6.30;72.20
85808;DHT22;76250;48.718;9.000;2024-03-07T03:25:48;6.30;72.40
85808;DHT22;76250;48.718;9.000;2024-03-07T03:28:18;6.20;72.50
85808;DHT22;76250;48.718;9.000;2024-03-07T03:30:48;6.20;72.40
85808;DHT22;76250;48.718;9.000;2024-03-07T03:33:18;6.20;72.40
85808;DHT22;76250;48.718;9.000;2024-03-07T03:35:46;6.10;72.30
85808;DHT22;76250;48.718;9.000;2024-03-07T03:38:14;6.10;72.20
85808;DHT22;76250;48.718;9.000;2024-03-07T03:40:43;6.10;72.20
85808;DHT22;76250;48.718;9.000;2024-03-07T03:43:12;6.10;72.10
85808;DHT22;76250;48.718;9.000;2024-03-07T03:45:40;6.00;72.10
85808;DHT22;76250;48.718;9.000;2024-03-07T03:48:08;6.00;72.20
85808;DHT22;76250;48.718;9.000;2024-03-07T03:50:37;6.00;72.30
85808;DHT22;76250;48.718;9.000;2024-03-07T03:53:05;6.00;72.30
85808;DHT22;76250;48.718;9.000;2024-03-07T03:55:33;5.90;72.30
85808;DHT22;76250;48.718;9.000;2024-03-07T03:58:01;5.90;72.30
85808;DHT22;76250;48.718;9.000;2024-03-07T04:00:29;5.80;72.40
85808;DHT22;76250;48.718;9.000;2024-03-07T04:02:57;5.80;72.50
85808;DHT22;76250;48.718;9.000;2024-03-07T04:05:25;5.80;72.60
85808;DHT22;76250;48.718;9.000;2024-03-07T04:07:53;5.80;72.70
85808;DHT22;76250;48.718;9.000;2024-03-07T04:10:22;5.80;72.70
85808;DHT22;76250;48.718;9.000;2024-03-07T04:12:50;5.80;72.80
85808;DHT22;76250;48.718;9.000;2024-03-07T04:15:18;5.80;72.80
85808;DHT22;76250;48.718;9.000;2024-03-07T04:17:47;5.80;73.00
85808;DHT22;76250;48.718;9.000;2024-03-07T04:20:16;5.80;73.00
85808;DHT22;76250;48.718;9.000;2024-03-07T04:22:47;5.80;73.10
85808;DHT22;76250;48.718;9.000;2024-03-07T04:25:17;5.80;73.20
85808;DHT22;76250;48.718;9.000;2024-03-07T04:27:45;5.80;73.20
85808;DHT22;76250;48.718;9.000;2024-03-07T04:30:14;5.80;73.30
85808;DHT22;76250;48.718;9.000;2024-03-07T04:32:44;5.90;73.40
85808;DHT22;76250;48.718;9.000;2024-03-07T04:35:12;5.90;73.50
85808;DHT22;76250;48.718;9.000;2024-03-07T04:37:45;5.90;73.60
85808;DHT22;76250;48.718;9.000;2024-03-07T04:40:13;5.90;73.70
85808;DHT22;76250;48.718;9.000;2024-03-07T04:42:47;6.00;73.70
85808;DHT22;76250;48.718;9.000;2024-03-07T04:45:18;6.00;73.70
85808;DHT22;76250;48.718;9.000;2024-03-07T04:47:46;6.10;73.60
85808;DHT22;76250;48.718;9.000;2024-03-07T04:50:16;6.10;73.40
85808;DHT22;76250;48.718;9.000;2024-03-07T04:52:47;6.10;73.20
85808;DHT22;76250;48.718;9.000;2024-03-07T04:55:17;6.10;73.10
85808;DHT22;76250;48.718;9.000;2024-03-07T04:57:45;6.20;73.00
85808;DHT22;76250;48.718;9.000;2024-03-07T05:00:14;6.20;73.00
85808;DHT22;76250;48.718;9.000;2024-03-07T05:02:47;6.20;73.20
85808;DHT22;76250;48.718;9.000;2024-03-07T05:05:16;6.20;73.10
85808;DHT22;76250;48.718;9.000;2024-03-07T05:07:54;6.20;73.00
85808;DHT22;76250;48.718;9.000;2024-03-07T05:10:23;6.20;73.40
85808;DHT22;76250;48.718;9.000;2024-03-07T05:12:52;6.20;72.90
85808;DHT22;76250;48.718;9.000;2024-03-07T05:15:20;6.20;72.90
85808;DHT22;76250;48.718;9.000;2024-03-07T05:17:48;6.20;72.80
85808;DHT22;76250;48.718;9.000;2024-03-07T05:20:16;6.20;72.90
85808;DHT22;76250;48.718;9.000;2024-03-07T05:22:45;6.20;72.80
85808;DHT22;76250;48.718;9.000;2024-03-07T05:25:19;6.20;72.60
85808;DHT22;76250;48.718;9.000;2024-03-07T05:27:48;6.20;72.60
85808;DHT22;76250;48.718;9.000;2024-03-07T05:30:19;6.20;72.60
85808;DHT22;76250;48.718;9.000;2024-03-07T05:32:47;6.20;72.60
85808;DHT22;76250;48.718;9.000;2024-03-07T05:35:16;6.30;72.20
85808;DHT22;76250;48.718;9.000;2024-03-07T05:37:48;6.20;72.10
85808;DHT22;76250;48.718;9.000;2024-03-07T05:40:19;6.20;72.10
85808;DHT22;76250;48.718;9.000;2024-03-07T05:42:47;6.20;72.00
85808;DHT22;76250;48.718;9.000;2024-03-07T05:45:15;6.20;71.80
85808;DHT22;76250;48.718;9.000;2024-03-07T05:47:46;6.20;71.80
85808;DHT22;76250;48.718;9.000;2024-03-07T05:50:16;6.20;72.00
85808;DHT22;76250;48.718;9.000;2024-03-07T05:52:44;6.10;71.70
85808;DHT22;76250;48.718;9.000;2024-03-07T05:55:12;6.10;71.60
85808;DHT22;76250;48.718;9.000;2024-03-07T05:57:40;6.00;71.40
85808;DHT22;76250;48.718;9.000;2024-03-07T06:00:11;6.00;71.40
85808;DHT22;76250;48.718;9.000;2024-03-07T06:02:42;6.00;71.40
85808;DHT22;76250;48.718;9.000;2024-03-07T06:05:11;6.00;71.20
85808;DHT22;76250;48.718;9.000;2024-03-07T06:07:44;5.90;71.10
85808;DHT22;76250;48.718;9.000;2024-03-07T06:10:15;5.90;71.00
85808;DHT22;76250;48.718;9.000;2024-03-07T06:12:44;5.80;70.70
85808;DHT22;76250;48.718;9.000;2024-03-07T06:15:16;5.80;70.70
85808;DHT22;76250;48.718;9.000;2024-03-07T06:17:45;5.70;70.50
85808;DHT22;76250;48.718;9.000;2024-03-07T06:20:15;5.70;70.50
85808;DHT22;76250;48.718;9.000;2024-03-07T06:22:53;5.60;70.60
85808;DHT22;76250;48.718;9.000;2024-03-07T06:25:21;5.50;70.90
85808;DHT22;76250;48.718;9.000;2024-03-07T06:28:02;5.50;71.10
85808;DHT22;76250;48.718;9.000;2024-03-07T06:30:41;5.50;71.10
85808;DHT22;76250;48.718;9.000;2024-03-07T06:33:11;5.40;71.30
85808;DHT22;76250;48.718;9.000;2024-03-07T06:35:39;5.40;71.50
85808;DHT22;76250;48.718;9.000;2024-03-07T06:38:09;5.40;71.50
85808;DHT22;76250;48.718;9.000;2024-03-07T06:40:38;5.40;71.60
85808;DHT22;76250;48.718;9.000;2024-03-07T06:43:10;5.40;71.80
85808;DHT22;76250;48.718;9.000;2024-03-07T06:45:39;5.40;72.10
85808;DHT22;76250;48.718;9.000;2024-03-07T06:48:09;5.40;72.20
85808;DHT22;76250;48.718;9.000;2024-03-07T06:50:38;5.50;72.20
85808;DHT22;76250;48.718;9.000;2024-03-07T06:53:06;5.50;72.30
85808;DHT22;76250;48.718;9.000;2024-03-07T06:55:36;5.50;72.60
85808;DHT22;76250;48.718;9.000;2024-03-07T06:58:04;5.50;72.70
85808;DHT22;76250;48.718;9.000;2024-03-07T07:00:33;5.60;72.90
85808;DHT22;76250;48.718;9.000;2024-03-07T07:03:05;5.60;72.90
85808;DHT22;76250;48.718;9.000;2024-03-07T07:05:34;5.60;72.70
85808;DHT22;76250;48.718;9.000;2024-03-07T07:08:03;5.70;72.50
85808;DHT22;76250;48.718;9.000;2024-03-07T07:10:33;5.70;72.40
85808;DHT22;76250;48.718;9.000;2024-03-07T07:13:00;5.80;72.60
85808;DHT22;76250;48.718;9.000;2024-03-07T07:15:28;5.80;72.60
85808;DHT22;76250;48.718;9.000;2024-03-07T07:17:56;5.80;72.80
85808;DHT22;76250;48.718;9.000;2024-03-07T07:20:25;5.90;73.00
85808;DHT22;76250;48.718;9.000;2024-03-07T07:22:53;6.00;73.40
85808;DHT22;76250;48.718;9.000;2024-03-07T07:25:22;6.10;73.00
85808;DHT22;76250;48.718;9.000;2024-03-07T07:27:51;6.10;72.50
85808;DHT22;76250;48.718;9.000;2024-03-07T07:30:21;6.10;72.20
85808;DHT22;76250;48.718;9.000;2024-03-07T07:32:51;6.20;71.70
85808;DHT22;76250;48.718;9.000;2024-03-07T07:35:20;6.20;71.80
85808;DHT22;76250;48.718;9.000;2024-03-07T07:37:50;6.20;71.70
85808;DHT22;76250;48.718;9.000;2024-03-07T07:40:22;6.20;72.50
85808;DHT22;76250;48.718;9.000;2024-03-07T07:42:51;6.30;72.70
85808;DHT22;76250;48.718;9.000;2024-03-07T07:45:21;6.30;72.80
85808;DHT22;76250;48.718;9.000;2024-03-07T07:47:51;6.30;72.90
85808;DHT22;76250;48.718;9.000;2024-03-07T07:50:23;6.30;73.00
85808;DHT22;76250;48.718;9.000;2024-03-07T07:52:57;6.40;73.60
85808;DHT22;76250;48.718;9.000;2024-03-07T07:55:27;6.40;73.10
85808;DHT22;76250;48.718;9.000;2024-03-07T07:57:59;6.50;74.20
85808;DHT22;76250;48.718;9.000;2024-03-07T08:00:28;6.50;73.50
85808;DHT22;76250;48.718;9.000;2024-03-07T08:03:02;6.60;73.40
85808;DHT22;76250;48.718;9.000;2024-03-07T08:05:35;6.60;73.00
85808;DHT22;76250;48.718;9.000;2024-03-07T08:08:06;6.70;73.00
85808;DHT22;76250;48.718;9.000;2024-03-07T08:10:36;6.70;72.90
85808;DHT22;76250;48.718;9.000;2024-03-07T08:13:05;6.70;72.70
85808;DHT22;76250;48.718;9.000;2024-03-07T08:15:38;6.80;72.40
85808;DHT22;76250;48.718;9.000;2024-03-07T08:18:06;6.80;72.50
85808;DHT22;76250;48.718;9.000;2024-03-07T08:20:38;6.90;72.40
85808;DHT22;76250;48.718;9.000;2024-03-07T08:23:09;6.90;72.60
85808;DHT22;76250;48.718;9.000;2024-03-07T08:25:38;7.00;72.60
85808;DHT22;76250;48.718;9.000;2024-03-07T08:28:08;7.10;72.80
85808;DHT22;76250;48.718;9.000;2024-03-07T08:30:36;7.10;72.70
85808;DHT22;76250;48.718;9.000;2024-03-07T08:33:04;7.20;72.20
85808;DHT22;76250;48.718;9.000;2024-03-07T08:37:11;7.20;72.60
85808;DHT22;76250;48.718;9.000;2024-03-07T08:39:40;7.40;72.20
85808;DHT22;76250;48.718;9.000;2024-03-07T08:42:08;7.50;71.20
85808;DHT22;76250;48.718;9.000;2024-03-07T08:44:36;7.50;70.50
85808;DHT22;76250;48.718;9.000;2024-03-07T08:47:04;7.50;70.40
85808;DHT22;76250;48.718;9.000;2024-03-07T08:49:32;7.50;70.70
85808;DHT22;76250;48.718;9.000;2024-03-07T08:52:00;7.50;70.80
85808;DHT22;76250;48.718;9.000;2024-03-07T08:54:29;7.50;71.30
85808;DHT22;76250;48.718;9.000;2024-03-07T08:56:57;7.60;71.30
85808;DHT22;76250;48.718;9.000;2024-03-07T08:59:25;7.60;70.80
85808;DHT22;76250;48.718;9.000;2024-03-07T09:01:53;7.60;70.90
85808;DHT22;76250;48.718;9.000;2024-03-07T09:04:20;7.60;70.50
85808;DHT22;76250;48.718;9.000;2024-03-07T09:06:49;7.60;70.50
85808;DHT22;76250;48.718;9.000;2024-03-07T09:09:17;7.60;70.50
85808;DHT22;76250;48.718;9.000;2024-03-07T09:11:46;7.70;70.90
85808;DHT22;76250;48.718;9.000;2024-03-07T09:14:14;7.70;71.30
85808;DHT22;76250;48.718;9.000;2024-03-07T09:16:43;7.80;71.90
85808;DHT22;76250;48.718;9.000;2024-03-07T09:19:11;7.80;71.50
85808;DHT22;76250;48.718;9.000;2024-03-07T09:21:42;7.80;71.80
85808;DHT22;76250;48.718;9.000;2024-03-07T09:24:10;7.90;72.10
85808;DHT22;76250;48.718;9.000;2024-03-07T09:26:38;7.90;71.60
85808;DHT22;76250;48.718;9.000;2024-03-07T09:29:07;8.00;72.00
85808;DHT22;76250;48.718;9.000;2024-03-07T09:31:34;8.00;71.40
85808;DHT22;76250;48.718;9.000;2024-03-07T09:34:02;8.00;71.10
85808;DHT22;76250;48.718;9.000;2024-03-07T09:36:30;8.10;71.20
85808;DHT22;76250;48.718;9.000;2024-03-07T09:38:58;8.10;71.20
85808;DHT22;76250;48.718;9.000;2024-03-07T09:41:27;8.10;71.10
85808;DHT22;76250;48.718;9.000;2024-03-07T09:43:55;8.10;71.20
85808;DHT22;76250;48.718;9.000;2024-03-07T09:46:24;8.10;71.00
85808;DHT22;76250;48.718;9.000;2024-03-07T09:48:52;8.20;70.80
85808;DHT22;76250;48.718;9.000;2024-03-07T09:51:22;8.20;71.00
85808;DHT22;76250;48.718;9.000;2024-03-07T09:53:53;8.20;70.70
85808;DHT22;76250;48.718;9.000;2024-03-07T09:56:21;8.30;70.50
85808;DHT22;76250;48.718;9.000;2024-03-07T09:58:50;8.30;70.40
85808;DHT22;76250;48.718;9.000;2024-03-07T10:01:20;8.30;70.70
85808;DHT22;76250;48.718;9.000;2024-03-07T10:03:50;8.40;70.60
85808;DHT22;76250;48.718;9.000;2024-03-07T10:06:20;8.50;71.20
85808;DHT22;76250;48.718;9.000;2024-03-07T10:08:50;8.50;70.80
85808;DHT22;76250;48.718;9.000;2024-03-07T10:11:18;8.50;70.20
85808;DHT22;76250;48.718;9.000;2024-03-07T10:13:48;8.60;70.80
85808;DHT22;76250;48.718;9.000;2024-03-07T10:16:17;8.60;70.70
85808;DHT22;76250;48.718;9.000;2024-03-07T10:18:46;8.70;70.80
85808;DHT22;76250;48.718;9.000;2024-03-07T10:21:14;8.70;71.10
85808;DHT22;76250;48.718;9.000;2024-03-07T10:23:44;8.80;70.60
85808;DHT22;76250;48.718;9.000;2024-03-07T10:26:12;8.90;71.10
85808;DHT22;76250;48.718;9.000;2024-03-07T10:28:40;8.90;70.70
85808;DHT22;76250;48.718;9.000;2024-03-07T10:31:08;9.00;70.20
85808;DHT22;76250;48.718;9.000;2024-03-07T10:33:40;9.00;70.00
85808;DHT22;76250;48.718;9.000;2024-03-07T10:36:09;9.00;69.60
85808;DHT22;76250;48.718;9.000;2024-03-07T10:38:41;9.00;69.60
85808;DHT22;76250;48.718;9.000;2024-03-07T10:41:10;9.00;69.30
85808;DHT22;76250;48.718;9.000;2024-03-07T10:43:40;9.00;69.00
85808;DHT22;76250;48.718;9.000;2024-03-07T10:46:10;9.00;68.90
85808;DHT22;76250;48.718;9.000;2024-03-07T10:48:39;9.00;69.00
85808;DHT22;76250;48.718;9.000;2024-03-07T10:51:20;9.10;69.40
85808;DHT22;76250;48.718;9.000;2024-03-07T10:53:58;9.10;68.80
85808;DHT22;76250;48.718;9.000;2024-03-07T10:59:27;9.10;69.10
85808;DHT22;76250;48.718;9.000;2024-03-07T11:05:06;9.20;69.10
85808;DHT22;76250;48.718;9.000;2024-03-07T11:07:40;9.20;68.90
85808;DHT22;76250;48.718;9.000;2024-03-07T11:10:08;9.20;68.80
85808;DHT22;76250;48.718;9.000;2024-03-07T11:12:40;9.30;68.40
85808;DHT22;76250;48.718;9.000;2024-03-07T11:15:11;9.40;68.30
85808;DHT22;76250;48.718;9.000;2024-03-07T11:17:43;9.40;68.40
85808;DHT22;76250;48.718;9.000;2024-03-07T11:20:22;9.40;67.10
85808;DHT22;76250;48.718;9.000;2024-03-07T11:22:52;9.40;67.40
85808;DHT22;76250;48.718;9.000;2024-03-07T11:25:23;9.50;67.50
85808;DHT22;76250;48.718;9.000;2024-03-07T11:27:56;9.50;67.30
85808;DHT22;76250;48.718;9.000;2024-03-07T11:30:25;9.50;66.90
85808;DHT22;76250;48.718;9.000;2024-03-07T11:32:54;9.60;68.90
85808;DHT22;76250;48.718;9.000;2024-03-07T11:35:33;9.70;67.90
85808;DHT22;76250;48.718;9.000;2024-03-07T11:38:06;9.70;66.90
85808;DHT22;76250;48.718;9.000;2024-03-07T11:43:07;9.70;67.20
85808;DHT22;76250;48.718;9.000;2024-03-07T11:45:35;9.80;67.60
85808;DHT22;76250;48.718;9.000;2024-03-07T11:48:21;9.80;67.10
85808;DHT22;76250;48.718;9.000;2024-03-07T11:50:49;9.80;66.20
85808;DHT22;76250;48.718;9.000;2024-03-07T11:53:18;9.90;67.00
85808;DHT22;76250;48.718;9.000;2024-03-07T11:55:46;10.00;67.30
85808;DHT22;76250;48.718;9.000;2024-03-07T11:58:17;10.10;67.10
85808;DHT22;76250;48.718;9.000;2024-03-07T12:00:51;10.20;67.20
85808;DHT22;76250;48.718;9.000;2024-03-07T12:03:20;10.30;66.70
85808;DHT22;76250;48.718;9.000;2024-03-07T12:05:50;10.40;66.70
85808;DHT22;76250;48.718;9.000;2024-03-07T12:08:19;10.50;67.00
85808;DHT22;76250;48.718;9.000;2024-03-07T12:10:52;10.50;67.00
85808;DHT22;76250;48.718;9.000;2024-03-07T12:13:27;10.60;65.70
85808;DHT22;76250;48.718;9.000;2024-03-07T12:15:56;10.70;65.80
85808;DHT22;76250;48.718;9.000;2024-03-07T12:18:26;10.70;65.00
85808;DHT22;76250;48.718;9.000;2024-03-07T12:20:56;10.70;65.90
85808;DHT22;76250;48.718;9.000;2024-03-07T12:23:27;10.80;65.80
85808;DHT22;76250;48.718;9.000;2024-03-07T12:26:02;10.80;64.00
85808;DHT22;76250;48.718;9.000;2024-03-07T12:28:31;10.70;64.10
85808;DHT22;76250;48.718;9.000;2024-03-07T12:31:03;10.80;64.80
85808;DHT22;76250;48.718;9.000;2024-03-07T12:33:34;10.80;64.10
85808;DHT22;76250;48.718;9.000;2024-03-07T12:36:07;10.70;63.30
85808;DHT22;76250;48.718;9.000;2024-03-07T12:38:38;10.70;64.20
85808;DHT22;76250;48.718;9.000;2024-03-07T12:41:10;10.70;64.30
85808;DHT22;76250;48.718;9.000;2024-03-07T12:43:44;10.70;64.40
85808;DHT22;76250;48.718;9.000;2024-03-07T12:46:14;10.80;64.20
85808;DHT22;76250;48.718;9.000;2024-03-07T12:48:44;10.80;64.30
85808;DHT22;76250;48.718;9.000;2024-03-07T12:51:14;10.80;64.90
85808;DHT22;76250;48.718;9.000;2024-03-07T12:53:47;10.80;64.00
85808;DHT22;76250;48.718;9.000;2024-03-07T12:56:16;10.80;63.50
85808;DHT22;76250;48.718;9.000;2024-03-07T12:58:47;10.80;63.80
85808;DHT22;76250;48.718;9.000;2024-03-07T13:01:19;10.80;64.80
85808;DHT22;76250;48.718;9.000;2024-03-07T13:03:48;10.80;63.80
85808;DHT22;76250;48.718;9.000;2024-03-07T13:06:17;10.80;64.20
85808;DHT22;76250;48.718;9.000;2024-03-07T13:08:54;10.80;64.20
85808;DHT22;76250;48.718;9.000;2024-03-07T13:11:23;10.80;64.40
85808;DHT22;76250;48.718;9.000;2024-03-07T13:13:51;10.80;63.50
85808;DHT22;76250;48.718;9.000;2024-03-07T13:16:20;10.80;64.30
85808;DHT22;76250;48.718;9.000;2024-03-07T13:18:48;10.80;63.80
85808;DHT22;76250;48.718;9.000;2024-03-07T13:21:17;10.80;63.80
85808;DHT22;76250;48.718;9.000;2024-03-07T13:23:46;10.80;63.90
85808;DHT22;76250;48.718;9.000;2024-03-07T13:26:21;10.80;63.80
85808;DHT22;76250;48.718;9.000;2024-03-07T13:28:53;10.80;63.70
85808;DHT22;76250;48.718;9.000;2024-03-07T13:31:22;10.80;64.30
85808;DHT22;76250;48.718;9.000;2024-03-07T13:33:50;10.90;63.80
85808;DHT22;76250;48.718;9.000;2024-03-07T13:36:19;10.80;63.20
85808;DHT22;76250;48.718;9.000;2024-03-07T13:38:54;10.80;63.50
85808;DHT22;76250;48.718;9.000;2024-03-07T13:41:23;10.80;63.40
85808;DHT22;76250;48.718;9.000;2024-03-07T13:43:54;10.80;62.80
85808;DHT22;76250;48.718;9.000;2024-03-07T13:46:22;10.80;62.70
85808;DHT22;76250;48.718;9.000;2024-03-07T13:48:50;10.80;62.60
85808;DHT22;76250;48.718;9.000;2024-03-07T13:51:19;10.80;62.70
85808;DHT22;76250;48.718;9.000;2024-03-07T13:53:48;10.80;62.80
85808;DHT22;76250;48.718;9.000;2024-03-07T13:56:44;10.70;62.70
85808;DHT22;76250;48.718;9.000;2024-03-07T13:59:56;10.70;62.90
85808;DHT22;76250;48.718;9.000;2024-03-07T14:06:00;10.70;62.80
85808;DHT22;76250;48.718;9.000;2024-03-07T14:18:38;10.60;62.80
85808;DHT22;76250;48.718;9.000;2024-03-07T14:31:13;10.50;61.90
85808;DHT22;76250;48.718;9.000;2024-03-07T14:36:43;10.50;62.60
85808;DHT22;76250;48.718;9.000;2024-03-07T14:39:18;10.50;62.40
85808;DHT22;76250;48.718;9.000;2024-03-07T14:42:02;10.40;62.20
85808;DHT22;76250;48.718;9.000;2024-03-07T14:44:37;10.40;62.50
85808;DHT22;76250;48.718;9.000;2024-03-07T14:47:08;10.40;61.90
85808;DHT22;76250;48.718;9.000;2024-03-07T14:49:39;10.40;62.50
85808;DHT22;76250;48.718;9.000;2024-03-07T14:52:07;10.40;62.10
85808;DHT22;76250;48.718;9.000;2024-03-07T14:54:39;10.40;62.10
85808;DHT22;76250;48.718;9.000;2024-03-07T14:57:10;10.40;62.70
85808;DHT22;76250;48.718;9.000;2024-03-07T14:59:39;10.40;62.30
85808;DHT22;76250;48.718;9.000;2024-03-07T15:02:10;10.40;62.50
85808;DHT22;76250;48.718;9.000;2024-03-07T15:04:39;10.40;62.80
85808;DHT22;76250;48.718;9.000;2024-03-07T15:07:09;10.40;62.90
85808;DHT22;76250;48.718;9.000;2024-03-07T15:09:39;10.40;63.00
85808;DHT22;76250;48.718;9.000;2024-03-07T15:12:07;10.40;63.00
85808;DHT22;76250;48.718;9.000;2024-03-07T15:14:36;10.40;62.70
85808;DHT22;76250;48.718;9.000;2024-03-07T15:17:08;10.40;62.70
85808;DHT22;76250;48.718;9.000;2024-03-07T15:19:36;10.40;62.80
85808;DHT22;76250;48.718;9.000;2024-03-07T15:22:04;10.40;62.30
85808;DHT22;76250;48.718;9.000;2024-03-07T15:24:32;10.40;62.50
85808;DHT22;76250;48.718;9.000;2024-03-07T15:27:03;10.40;62.90
85808;DHT22;76250;48.718;9.000;2024-03-07T15:29:33;10.30;62.40
85808;DHT22;76250;48.718;9.000;2024-03-07T15:32:05;10.30;62.90
85808;DHT22;76250;48.718;9.000;2024-03-07T15:34:36;10.30;62.70
85808;DHT22;76250;48.718;9.000;2024-03-07T15:37:05;10.30;62.90
85808;DHT22;76250;48.718;9.000;2024-03-07T15:39:33;10.30;62.50
85808;DHT22;76250;48.718;9.000;2024-03-07T15:42:06;10.20;62.60
85808;DHT22;76250;48.718;9.000;2024-03-07T15:44:39;10.20;62.80
85808;DHT22;76250;48.718;9.000;2024-03-07T15:47:07;10.20;62.70
85808;DHT22;76250;48.718;9.000;2024-03-07T15:49:38;10.10;63.10
85808;DHT22;76250;48.718;9.000;2024-03-07T15:52:08;10.10;62.80
85808;DHT22;76250;48.718;9.000;2024-03-07T15:54:37;10.10;63.20
85808;DHT22;76250;48.718;9.000;2024-03-07T15:57:05;10.10;63.10
85808;DHT22;76250;48.718;9.000;2024-03-07T15:59:34;10.10;62.90
85808;DHT22;76250;48.718;9.000;2024-03-07T16:02:02;10.10;62.80
85808;DHT22;76250;48.718;9.000;2024-03-07T16:04:32;10.10;63.00
85808;DHT22;76250;48.718;9.000;2024-03-07T16:07:01;10.00;62.90
85808;DHT22;76250;48.718;9.000;2024-03-07T16:09:29;10.00;62.80
85808;DHT22;76250;48.718;9.000;2024-03-07T16:11:57;10.00;63.00
85808;DHT22;76250;48.718;9.000;2024-03-07T16:14:25;10.00;62.70
85808;DHT22;76250;48.718;9.000;2024-03-07T16:16:53;10.00;63.00
85808;DHT22;76250;48.718;9.000;2024-03-07T16:19:21;10.00;63.10
85808;DHT22;76250;48.718;9.000;2024-03-07T16:21:50;10.00;62.60
85808;DHT22;76250;48.718;9.000;2024-03-07T16:24:18;9.90;62.80
85808;DHT22;76250;48.718;9.000;2024-03-07T16:26:46;9.90;63.00
85808;DHT22;76250;48.718;9.000;2024-03-07T16:29:15;9.90;63.00
85808;DHT22;76250;48.718;9.000;2024-03-07T16:31:43;9.90;63.10
85808;DHT22;76250;48.718;9.000;2024-03-07T16:34:12;9.90;63.70